createdAt,value
2023-04-30T00:02:09.350Z,11.38
2023-04-30T00:04:37.052Z,12.90
2023-04-30T00:07:04.079Z,14.25
2023-04-30T00:09:30.743Z,15.25
2023-04-30T00:11:57.564Z,11.73
2023-04-30T00:14:24.320Z,13.93
2023-04-30T00:16:51.167Z,17.40
2023-04-30T00:19:17.930Z,18.58
2023-04-30T00:21:44.709Z,13.52
2023-04-30T00:24:11.327Z,14.38
2023-04-30T00:26:39.157Z,10.27
2023-04-30T00:29:05.748Z,11.98
2023-04-30T00:31:32.391Z,11.15
2023-04-30T00:33:59.105Z,9.40
2023-04-30T00:36:25.865Z,13.57
2023-04-30T00:38:52.583Z,8.05
2023-04-30T00:41:21.203Z,9.60
2023-04-30T00:43:47.811Z,10.20
2023-04-30T00:46:14.465Z,12.18
2023-04-30T00:48:41.186Z,9.18
2023-04-30T00:51:08.418Z,13.93
2023-04-30T00:53:36.314Z,11.70
2023-04-30T00:56:02.980Z,12.38
2023-04-30T00:58:30.131Z,11.35
2023-04-30T01:00:57.075Z,11.07
2023-04-30T01:03:24.169Z,9.13
2023-04-30T01:05:50.831Z,10.65
2023-04-30T01:08:17.760Z,10.38
2023-04-30T01:11:17.584Z,11.88
2023-04-30T01:14:08.306Z,11.48
2023-04-30T01:16:51.300Z,14.45
2023-04-30T01:19:41.031Z,17.35
2023-04-30T01:22:12.054Z,17.77
2023-04-30T01:25:00.378Z,19.02
2023-04-30T01:27:48.604Z,22.92
2023-04-30T01:30:17.253Z,22.52
2023-04-30T01:32:43.895Z,15.98
2023-04-30T01:35:10.732Z,21.65
2023-04-30T01:38:00.185Z,17.77
2023-04-30T01:40:26.776Z,21.30
2023-04-30T01:43:18.368Z,20.90
2023-04-30T01:45:56.880Z,23.92
2023-04-30T01:48:51.219Z,22.13
2023-04-30T01:51:30.776Z,24.73
2023-04-30T01:54:00.624Z,24.52
2023-04-30T01:56:32.751Z,17.48
2023-04-30T01:59:00.864Z,20.85
2023-04-30T02:01:29.022Z,19.25
2023-04-30T02:03:55.926Z,24.50
2023-04-30T02:06:28.471Z,17.73
2023-04-30T02:08:56.762Z,18.55
2023-04-30T02:11:24.706Z,18.65
2023-04-30T02:13:51.768Z,17.60
2023-04-30T02:16:18.674Z,16.25
2023-04-30T02:18:45.995Z,16.38
2023-04-30T02:21:12.765Z,18.77
2023-04-30T02:23:39.343Z,17.02
2023-04-30T02:26:06.072Z,18.25
2023-04-30T02:28:32.672Z,19.33
2023-04-30T02:30:59.383Z,19.17
2023-04-30T02:33:26.066Z,15.05
2023-04-30T02:35:52.699Z,20.30
2023-04-30T02:38:19.331Z,15.45
2023-04-30T02:40:45.930Z,17.85
2023-04-30T02:43:12.531Z,21.15
2023-04-30T02:45:39.198Z,16.13
2023-04-30T02:48:06.072Z,21.27
2023-04-30T02:50:33.014Z,19.85
2023-04-30T02:53:00.040Z,17.65
2023-04-30T02:55:26.778Z,19.17
2023-04-30T02:57:53.506Z,18.77
2023-04-30T03:00:20.286Z,18.02
2023-04-30T03:02:47.034Z,15.27
2023-04-30T03:05:15.811Z,21.20
2023-04-30T03:07:42.536Z,26.20
2023-04-30T03:10:10.001Z,23.20
2023-04-30T03:12:36.707Z,18.17
2023-04-30T03:15:03.823Z,19.90
2023-04-30T03:17:30.491Z,21.13
2023-04-30T03:19:57.239Z,16.10
2023-04-30T03:22:26.742Z,17.88
2023-04-30T03:24:53.436Z,18.90
2023-04-30T03:27:20.213Z,14.73
2023-04-30T03:29:46.879Z,18.27
2023-04-30T03:32:13.520Z,18.73
2023-04-30T03:34:40.152Z,21.25
2023-04-30T03:37:06.728Z,23.85
2023-04-30T03:39:33.402Z,17.13
2023-04-30T03:42:00.446Z,15.05
2023-04-30T03:44:27.146Z,20.02
2023-04-30T03:46:53.784Z,18.95
2023-04-30T03:49:20.460Z,20.95
2023-04-30T03:51:47.532Z,16.20
2023-04-30T03:54:14.138Z,19.30
2023-04-30T03:56:41.243Z,19.30
2023-04-30T03:59:08.153Z,19.67
2023-04-30T04:01:34.903Z,19.42
2023-04-30T04:04:02.476Z,15.35
2023-04-30T04:06:29.317Z,18.98
2023-04-30T04:08:56.235Z,20.60
2023-04-30T04:11:22.958Z,23.00
2023-04-30T04:13:49.632Z,23.45
2023-04-30T04:16:16.333Z,20.90
2023-04-30T04:18:43.404Z,15.88
2023-04-30T04:21:10.092Z,13.70
2023-04-30T04:23:36.723Z,18.67
2023-04-30T04:26:03.372Z,11.68
2023-04-30T04:28:30.161Z,10.15
2023-04-30T04:30:56.843Z,9.52
2023-04-30T04:33:23.411Z,8.20
2023-04-30T04:35:50.019Z,13.73
2023-04-30T04:38:16.716Z,7.43
2023-04-30T04:40:51.589Z,14.52
2023-04-30T04:43:18.454Z,11.18
2023-04-30T04:45:45.187Z,11.90
2023-04-30T04:48:11.857Z,8.63
2023-04-30T04:50:38.579Z,8.52
2023-04-30T04:53:05.312Z,10.68
2023-04-30T04:55:32.237Z,8.75
2023-04-30T04:57:58.895Z,8.00
2023-04-30T05:00:25.962Z,13.73
2023-04-30T05:02:53.591Z,17.48
2023-04-30T05:05:20.524Z,11.80
2023-04-30T05:07:47.224Z,8.98
2023-04-30T05:10:14.134Z,9.82
2023-04-30T05:12:40.969Z,11.55
2023-04-30T05:15:08.109Z,12.60
2023-04-30T05:17:34.856Z,13.98
2023-04-30T05:20:01.899Z,13.95
2023-04-30T05:22:28.591Z,11.90
2023-04-30T05:24:55.971Z,13.35
2023-04-30T05:27:22.664Z,11.50
2023-04-30T05:29:49.412Z,10.38
2023-04-30T05:32:16.436Z,14.32
2023-04-30T05:34:43.067Z,10.43
2023-04-30T05:37:09.784Z,9.40
2023-04-30T05:39:36.415Z,7.72
2023-04-30T05:42:03.486Z,9.60
2023-04-30T05:44:33.090Z,16.08
2023-04-30T05:46:59.785Z,5.13
2023-04-30T05:49:27.497Z,6.70
2023-04-30T05:51:54.198Z,11.10
2023-04-30T05:54:20.848Z,9.55
2023-04-30T05:56:47.806Z,5.90
2023-04-30T05:59:14.453Z,11.77
2023-04-30T06:01:41.876Z,8.82
2023-04-30T06:04:09.429Z,10.35
2023-04-30T06:06:41.327Z,6.38
2023-04-30T06:09:08.277Z,9.95
2023-04-30T06:11:35.208Z,7.35
2023-04-30T06:14:06.058Z,10.13
2023-04-30T06:16:33.364Z,5.53
2023-04-30T06:19:00.455Z,11.25
2023-04-30T06:21:27.354Z,11.60
2023-04-30T06:23:54.162Z,7.10
2023-04-30T06:26:21.005Z,12.68
2023-04-30T06:28:47.645Z,6.88
2023-04-30T06:31:14.490Z,10.88
2023-04-30T06:33:41.196Z,7.40
2023-04-30T06:36:07.806Z,9.20
2023-04-30T06:38:34.440Z,10.73
2023-04-30T06:41:01.085Z,5.57
2023-04-30T06:43:27.762Z,9.23
2023-04-30T06:45:54.414Z,8.27
2023-04-30T06:48:21.084Z,8.05
2023-04-30T06:50:47.646Z,8.52
2023-04-30T06:53:15.278Z,10.88
2023-04-30T06:55:43.075Z,7.85
2023-04-30T06:58:09.810Z,8.07
2023-04-30T07:00:36.633Z,8.52
2023-04-30T07:03:04.894Z,5.95
2023-04-30T07:05:32.117Z,5.72
2023-04-30T07:08:01.447Z,9.95
2023-04-30T07:10:28.174Z,6.47
2023-04-30T07:12:55.288Z,7.93
2023-04-30T07:15:22.007Z,8.10
2023-04-30T07:17:48.770Z,8.02
2023-04-30T07:20:15.967Z,9.13
2023-04-30T07:22:45.859Z,8.35
2023-04-30T07:25:15.939Z,6.93
2023-04-30T07:27:42.647Z,7.90
2023-04-30T07:30:10.698Z,8.55
2023-04-30T07:32:38.230Z,7.68
2023-04-30T07:35:05.354Z,9.07
2023-04-30T07:37:34.912Z,8.48
2023-04-30T07:40:02.466Z,10.80
2023-04-30T07:42:29.148Z,6.00
2023-04-30T07:44:55.740Z,7.93
2023-04-30T07:47:22.524Z,10.32
2023-04-30T07:49:49.924Z,12.60
2023-04-30T07:52:16.755Z,10.48
2023-04-30T07:54:43.421Z,6.65
2023-04-30T07:57:10.078Z,7.95
2023-04-30T07:59:36.662Z,5.07
2023-04-30T08:02:03.882Z,6.45
2023-04-30T08:04:30.839Z,7.50
2023-04-30T08:06:57.540Z,6.45
2023-04-30T08:09:24.313Z,5.63
2023-04-30T08:11:51.372Z,4.63
2023-04-30T08:14:18.053Z,4.82
2023-04-30T08:16:44.898Z,4.60
2023-04-30T08:19:11.615Z,3.63
2023-04-30T08:21:39.034Z,10.00
2023-04-30T08:24:05.919Z,6.05
2023-04-30T08:26:32.594Z,4.38
2023-04-30T08:28:59.248Z,4.68
2023-04-30T08:31:26.076Z,6.63
2023-04-30T08:33:52.910Z,4.40
2023-04-30T08:36:19.837Z,4.78
2023-04-30T08:38:46.731Z,8.07
2023-04-30T08:41:18.782Z,5.20
2023-04-30T08:46:13.985Z,2.65
2023-04-30T08:48:41.635Z,4.10
2023-04-30T08:51:08.466Z,3.45
2023-04-30T08:53:38.439Z,2.05
2023-04-30T08:56:05.956Z,3.85
2023-04-30T08:58:32.954Z,2.72
2023-04-30T09:01:00.764Z,3.15
2023-04-30T09:03:28.565Z,6.50
2023-04-30T09:05:55.572Z,6.63
2023-04-30T09:11:30.599Z,2.72
2023-04-30T09:14:01.888Z,2.53
2023-04-30T09:16:33.829Z,3.72
2023-04-30T09:24:24.142Z,5.97
2023-04-30T09:26:51.753Z,4.40
2023-04-30T09:29:18.614Z,3.13
2023-04-30T09:32:01.354Z,2.88
2023-04-30T09:34:35.971Z,4.00
2023-04-30T09:37:02.664Z,3.20
2023-04-30T09:39:30.051Z,4.95
2023-04-30T09:42:10.150Z,4.63
2023-04-30T09:44:44.527Z,3.38
2023-04-30T09:47:15.992Z,5.05
2023-04-30T09:49:45.808Z,6.20
2023-04-30T09:52:12.837Z,2.58
2023-04-30T09:54:41.193Z,1.85
2023-04-30T09:57:11.454Z,1.98
2023-04-30T09:59:39.864Z,3.90
2023-04-30T10:02:08.841Z,3.85
2023-04-30T10:04:42.957Z,2.92
2023-04-30T10:07:15.619Z,2.65
2023-04-30T10:09:59.886Z,3.85
2023-04-30T10:12:44.664Z,2.17
2023-04-30T10:15:17.722Z,2.92
2023-04-30T10:17:50.211Z,2.67
2023-04-30T10:20:19.209Z,2.97
2023-04-30T10:22:48.660Z,3.20
2023-04-30T10:25:16.507Z,2.30
2023-04-30T10:27:43.712Z,2.13
2023-04-30T10:30:11.939Z,3.03
2023-04-30T10:32:57.813Z,3.85
2023-04-30T10:35:33.562Z,2.70
2023-04-30T10:38:17.019Z,5.30
2023-04-30T10:40:47.307Z,5.60
2023-04-30T10:43:14.182Z,1.58
2023-04-30T10:45:46.774Z,3.22
2023-04-30T10:48:16.083Z,3.75
2023-04-30T10:50:46.199Z,1.98
2023-04-30T10:53:16.202Z,1.75
2023-04-30T10:56:06.645Z,2.85
2023-04-30T10:58:35.739Z,1.52
2023-04-30T11:01:12.215Z,1.58
2023-04-30T11:03:41.298Z,3.05
2023-04-30T11:06:15.969Z,3.78
2023-04-30T11:08:47.612Z,2.65
2023-04-30T11:11:24.011Z,3.50
2023-04-30T11:14:01.340Z,4.70
2023-04-30T11:16:34.394Z,2.50
2023-04-30T11:19:11.681Z,4.38
2023-04-30T11:21:42.958Z,3.67
2023-04-30T11:24:23.353Z,3.23
2023-04-30T11:27:15.413Z,1.63
2023-04-30T11:29:44.159Z,2.08
2023-04-30T11:32:11.099Z,1.70
2023-04-30T11:34:39.093Z,2.35
2023-04-30T11:37:07.037Z,3.50
2023-04-30T11:39:37.314Z,2.22
2023-04-30T11:42:04.222Z,2.70
2023-04-30T11:44:31.146Z,2.47
2023-04-30T11:46:58.867Z,1.92
2023-04-30T11:49:27.130Z,4.82
2023-04-30T11:51:53.910Z,4.13
2023-04-30T11:54:20.703Z,2.65
2023-04-30T11:56:49.178Z,6.03
2023-04-30T11:59:17.006Z,3.95
2023-04-30T12:01:44.590Z,2.25
2023-04-30T12:06:37.055Z,2.17
2023-04-30T12:09:07.403Z,5.57
2023-04-30T12:11:35.739Z,4.32
2023-04-30T12:14:07.895Z,3.00
2023-04-30T12:16:51.284Z,1.75
2023-04-30T12:19:19.510Z,2.30
2023-04-30T12:21:48.540Z,2.97
2023-04-30T12:24:17.713Z,3.53
2023-04-30T12:26:45.237Z,1.83
2023-04-30T12:29:15.881Z,3.30
2023-04-30T12:31:43.795Z,1.65
2023-04-30T12:34:12.701Z,2.13
2023-04-30T12:36:42.893Z,1.27
2023-04-30T12:39:20.827Z,1.67
2023-04-30T12:41:49.529Z,4.40
2023-04-30T12:44:27.660Z,3.35
2023-04-30T12:46:57.385Z,1.73
2023-04-30T12:49:29.679Z,2.63
2023-04-30T12:52:09.030Z,5.05
2023-04-30T12:54:36.942Z,1.83
2023-04-30T12:57:12.467Z,2.95
2023-04-30T12:59:59.404Z,2.67
2023-04-30T13:02:28.745Z,2.15
2023-04-30T13:04:55.697Z,3.72
2023-04-30T13:07:23.267Z,1.67
2023-04-30T13:09:50.120Z,8.00
2023-04-30T13:12:17.236Z,6.82
2023-04-30T13:14:44.980Z,3.28
2023-04-30T13:17:14.154Z,3.85
2023-04-30T13:19:41.221Z,5.03
2023-04-30T13:22:08.076Z,4.20
2023-04-30T13:24:36.325Z,5.40
2023-04-30T13:27:04.350Z,2.28
2023-04-30T13:29:32.045Z,3.42
2023-04-30T13:31:59.369Z,3.60
2023-04-30T13:34:26.665Z,2.58
2023-04-30T13:36:57.322Z,6.75
2023-04-30T13:39:29.245Z,5.10
2023-04-30T13:44:24.750Z,3.50
2023-04-30T13:46:52.357Z,6.18
2023-04-30T13:49:19.485Z,5.78
2023-04-30T13:51:46.067Z,4.82
2023-04-30T13:54:12.696Z,4.70
2023-04-30T13:56:42.998Z,4.13
2023-04-30T13:59:09.734Z,4.38
2023-04-30T14:01:37.366Z,8.25
2023-04-30T14:04:04.889Z,3.53
2023-04-30T14:06:32.134Z,5.75
2023-04-30T14:08:58.797Z,8.57
2023-04-30T14:11:27.512Z,10.30
2023-04-30T14:13:55.227Z,10.82
2023-04-30T14:16:23.021Z,3.30
2023-04-30T14:18:49.892Z,3.22
2023-04-30T14:21:16.598Z,3.08
2023-04-30T14:23:46.546Z,5.72
2023-04-30T14:26:13.363Z,4.63
2023-04-30T14:28:40.098Z,4.50
2023-04-30T14:31:06.864Z,3.88
2023-04-30T14:33:33.459Z,6.53
2023-04-30T14:36:03.186Z,5.03
2023-04-30T14:38:29.786Z,3.85
2023-04-30T14:40:56.417Z,3.00
2023-04-30T14:43:23.684Z,3.42
2023-04-30T14:45:52.068Z,6.10
2023-04-30T14:48:18.709Z,3.42
2023-04-30T14:50:49.280Z,2.65
2023-04-30T14:53:16.421Z,2.75
2023-04-30T14:55:43.954Z,3.35
2023-04-30T15:01:10.865Z,3.35
2023-04-30T15:03:41.020Z,3.42
2023-04-30T15:06:08.898Z,2.10
2023-04-30T15:08:36.737Z,2.92
2023-04-30T15:11:07.641Z,2.97
2023-04-30T15:13:35.053Z,2.13
2023-04-30T15:16:02.358Z,2.50
2023-04-30T15:18:29.838Z,2.92
2023-04-30T15:20:56.791Z,3.20
2023-04-30T15:23:24.154Z,2.70
2023-04-30T15:26:05.825Z,4.55
2023-04-30T15:31:32.319Z,4.45
2023-04-30T15:34:01.066Z,3.10
2023-04-30T15:36:28.792Z,2.70
2023-04-30T15:38:56.598Z,1.98
2023-04-30T15:41:24.902Z,2.30
2023-04-30T15:43:52.250Z,2.78
2023-04-30T15:46:26.021Z,6.35
2023-04-30T15:48:53.482Z,2.03
2023-04-30T15:51:27.354Z,2.05
2023-04-30T15:54:03.458Z,3.40
2023-04-30T15:56:32.039Z,2.20
2023-04-30T15:59:05.981Z,1.25
2023-04-30T16:01:34.102Z,2.15
2023-04-30T16:04:01.514Z,2.90
2023-04-30T16:06:30.239Z,2.75
2023-04-30T16:08:57.340Z,6.05
2023-04-30T16:11:24.533Z,2.80
2023-04-30T16:14:14.236Z,5.50
2023-04-30T16:16:41.516Z,1.45
2023-04-30T16:19:30.763Z,4.32
2023-04-30T16:21:58.410Z,3.25
2023-04-30T16:24:38.971Z,6.25
2023-04-30T16:27:15.439Z,3.42
2023-04-30T16:29:43.604Z,2.70
2023-04-30T16:32:13.051Z,7.28
2023-04-30T16:34:41.289Z,3.38
2023-04-30T16:37:07.874Z,1.90
2023-04-30T16:39:34.542Z,4.05
2023-04-30T16:42:02.357Z,5.07
2023-04-30T16:44:28.990Z,5.60
2023-04-30T16:46:58.247Z,3.03
2023-04-30T16:49:24.975Z,5.13
2023-04-30T16:51:51.820Z,4.07
2023-04-30T16:54:18.896Z,1.85
2023-04-30T16:56:45.615Z,2.78
2023-04-30T16:59:12.315Z,3.83
2023-04-30T17:01:39.200Z,5.18
2023-04-30T17:04:07.236Z,8.15
2023-04-30T17:07:11.980Z,6.10
2023-04-30T17:09:38.637Z,4.80
2023-04-30T17:12:05.601Z,3.10
2023-04-30T17:14:34.264Z,5.57
2023-04-30T17:17:01.982Z,4.22
2023-04-30T17:19:28.877Z,4.03
2023-04-30T17:21:57.179Z,4.78
2023-04-30T17:24:24.390Z,3.88
2023-04-30T17:26:51.756Z,2.92
2023-04-30T17:29:22.803Z,2.55
2023-04-30T17:31:50.107Z,3.38
2023-04-30T17:34:17.733Z,4.90
2023-04-30T17:36:44.947Z,4.90
2023-04-30T17:39:13.026Z,8.60
2023-04-30T17:41:41.182Z,6.00
2023-04-30T17:44:08.520Z,5.55
2023-04-30T17:46:35.900Z,7.95
2023-04-30T17:49:03.715Z,6.40
2023-04-30T17:51:31.799Z,6.00
2023-04-30T17:54:02.724Z,7.18
2023-04-30T17:56:33.448Z,7.60
2023-04-30T17:59:01.134Z,4.70
2023-04-30T18:01:28.185Z,7.22
2023-04-30T18:03:55.527Z,7.03
2023-04-30T18:06:22.350Z,6.80
2023-04-30T18:08:49.409Z,8.25
2023-04-30T18:11:16.737Z,6.97
2023-04-30T18:13:43.790Z,8.18
2023-04-30T18:16:10.840Z,5.65
2023-04-30T18:18:37.703Z,7.30
2023-04-30T18:21:08.914Z,8.90
2023-04-30T18:23:37.302Z,7.70
2023-04-30T18:26:05.151Z,5.75
2023-04-30T18:28:31.838Z,7.97
2023-04-30T18:30:58.537Z,5.10
2023-04-30T18:33:26.319Z,7.68
2023-04-30T18:35:53.239Z,8.32
2023-04-30T18:38:20.867Z,11.55
2023-04-30T18:40:47.664Z,12.95
2023-04-30T18:43:16.392Z,13.52
2023-04-30T18:45:43.179Z,14.18
2023-04-30T18:48:10.098Z,18.63
2023-04-30T18:50:37.384Z,27.92
2023-04-30T18:53:04.725Z,39.60
2023-04-30T18:55:31.601Z,61.50
2023-04-30T18:57:58.817Z,43.30
2023-04-30T19:00:25.972Z,47.80
2023-04-30T19:02:52.849Z,25.02
2023-04-30T19:05:19.916Z,12.80
2023-04-30T19:07:46.907Z,12.00
2023-04-30T19:10:13.811Z,11.35
2023-04-30T19:12:41.530Z,15.70
2023-04-30T19:15:10.004Z,19.27
2023-04-30T19:17:36.755Z,16.67
2023-04-30T19:20:04.132Z,15.75
2023-04-30T19:22:31.189Z,14.80
2023-04-30T19:25:01.254Z,15.93
2023-04-30T19:27:28.237Z,15.27
2023-04-30T19:29:55.279Z,16.92
2023-04-30T19:32:22.191Z,19.40
2023-04-30T19:34:49.042Z,20.92
2023-04-30T19:37:15.795Z,13.23
2023-04-30T19:39:43.219Z,11.88
2023-04-30T19:42:10.092Z,9.05
2023-04-30T19:44:37.091Z,6.35
2023-04-30T19:47:05.104Z,5.78
2023-04-30T19:49:34.413Z,5.40
2023-04-30T19:52:02.423Z,4.20
2023-04-30T19:54:29.110Z,5.13
2023-04-30T19:56:56.041Z,6.25
2023-04-30T19:59:22.950Z,6.72
2023-04-30T20:01:50.129Z,5.18
2023-04-30T20:04:17.002Z,6.40
2023-04-30T20:06:44.960Z,7.53
2023-04-30T20:09:12.035Z,7.88
2023-04-30T20:11:38.839Z,11.70
2023-04-30T20:14:05.717Z,5.97
2023-04-30T20:16:32.687Z,6.45
2023-04-30T20:18:59.605Z,5.03
2023-04-30T20:21:26.434Z,6.82
2023-04-30T20:23:53.403Z,5.20
2023-04-30T20:26:21.617Z,5.35
2023-04-30T20:28:48.417Z,6.55
2023-04-30T20:31:15.367Z,6.45
2023-04-30T20:33:42.450Z,6.78
2023-04-30T20:36:09.203Z,4.60
2023-04-30T20:38:36.228Z,5.57
2023-04-30T20:41:02.905Z,10.65
2023-04-30T20:43:29.698Z,4.65
2023-04-30T20:45:58.906Z,8.02
2023-04-30T20:48:26.441Z,4.03
2023-04-30T20:50:53.052Z,4.53
2023-04-30T20:53:19.953Z,4.70
2023-04-30T20:55:46.597Z,5.35
2023-04-30T20:58:13.244Z,3.47
2023-04-30T21:00:40.113Z,4.47
2023-04-30T21:03:07.015Z,3.35
2023-04-30T21:05:34.356Z,4.72
2023-04-30T21:08:01.920Z,5.32
2023-04-30T21:10:36.229Z,6.55
2023-04-30T21:13:08.872Z,4.45
2023-04-30T21:15:36.382Z,4.13
2023-04-30T21:18:03.482Z,7.35
2023-04-30T21:20:31.657Z,5.80
2023-04-30T21:22:58.618Z,5.28
2023-04-30T21:25:25.252Z,5.03
2023-04-30T21:27:52.310Z,5.32
2023-04-30T21:30:19.210Z,4.45
2023-04-30T21:32:48.848Z,4.15
2023-04-30T21:35:15.842Z,3.75
2023-04-30T21:37:42.563Z,4.60
2023-04-30T21:40:09.647Z,3.83
2023-04-30T21:42:36.453Z,4.35
2023-04-30T21:45:03.450Z,5.85
2023-04-30T21:47:30.843Z,3.53
2023-04-30T21:49:58.830Z,4.90
2023-04-30T21:52:25.962Z,3.97
2023-04-30T21:54:52.634Z,3.50
2023-04-30T21:57:19.573Z,3.97
2023-04-30T21:59:46.224Z,2.85
2023-04-30T22:02:23.316Z,4.43
2023-04-30T22:04:51.247Z,5.53
2023-04-30T22:07:18.293Z,3.75
2023-04-30T22:09:45.065Z,62.55
2023-04-30T22:12:12.276Z,5.88
2023-04-30T22:14:39.232Z,17.58
2023-04-30T22:17:06.014Z,5.82
2023-04-30T22:19:32.631Z,17.58
2023-04-30T22:21:59.719Z,6.95
2023-04-30T22:24:26.332Z,8.13
2023-04-30T22:26:52.959Z,11.88
2023-04-30T22:29:19.945Z,49.50
2023-04-30T22:31:46.989Z,6.65
2023-04-30T22:34:15.515Z,6.47
2023-04-30T22:36:43.626Z,4.45
2023-04-30T22:39:10.245Z,8.15
2023-04-30T22:41:36.922Z,2.47
2023-04-30T22:44:04.748Z,4.03
2023-04-30T22:46:33.575Z,4.78
2023-04-30T22:49:01.056Z,2.90
2023-04-30T22:51:27.680Z,3.88
2023-04-30T22:53:55.497Z,3.08
2023-04-30T22:56:23.355Z,2.63
2023-04-30T22:58:50.079Z,1.88
2023-04-30T23:01:16.960Z,3.38
2023-04-30T23:03:43.768Z,4.68
2023-04-30T23:06:11.086Z,2.85
2023-04-30T23:08:37.855Z,3.22
2023-04-30T23:11:05.314Z,3.58
2023-04-30T23:13:32.024Z,1.98
2023-04-30T23:15:59.542Z,2.72
2023-04-30T23:18:26.369Z,2.55
2023-04-30T23:20:59.011Z,1.80
2023-04-30T23:23:26.791Z,5.68
2023-04-30T23:25:54.744Z,2.75
2023-04-30T23:28:22.473Z,3.95
2023-04-30T23:30:52.629Z,2.65
2023-04-30T23:33:19.947Z,2.65
2023-04-30T23:35:47.090Z,3.80
2023-04-30T23:38:14.888Z,2.17
2023-04-30T23:40:42.326Z,2.28
2023-04-30T23:43:09.554Z,2.10
2023-04-30T23:45:36.175Z,2.40
2023-04-30T23:48:02.905Z,2.17
2023-04-30T23:50:29.625Z,1.50
2023-04-30T23:52:56.255Z,2.35
2023-04-30T23:55:22.920Z,1.73
2023-04-30T23:57:49.517Z,1.63
